createdAt,value
2023-04-22T00:00:58.854Z,9.90
2023-04-22T00:03:28.925Z,9.90
2023-04-22T00:05:57.581Z,10.00
2023-04-22T00:08:27.179Z,9.90
2023-04-22T00:10:56.569Z,9.90
2023-04-22T00:13:24.627Z,9.90
2023-04-22T00:15:52.829Z,9.90
2023-04-22T00:18:21.052Z,9.80
2023-04-22T00:20:49.153Z,10.00
2023-04-22T00:23:18.410Z,9.90
2023-04-22T00:25:47.835Z,9.90
2023-04-22T00:28:15.821Z,9.90
2023-04-22T00:30:43.819Z,9.90
2023-04-22T00:33:11.930Z,9.90
2023-04-22T00:35:40.254Z,10.10
2023-04-22T00:38:08.232Z,10.20
2023-04-22T00:40:36.220Z,10.00
2023-04-22T00:43:05.992Z,9.90
2023-04-22T00:45:35.134Z,9.90
2023-04-22T00:48:03.642Z,10.00
2023-04-22T00:50:31.807Z,10.00
2023-04-22T00:52:59.898Z,10.00
2023-04-22T00:55:28.567Z,10.00
2023-04-22T00:57:59.474Z,10.00
2023-04-22T01:00:29.943Z,10.00
2023-04-22T01:02:59.353Z,10.10
2023-04-22T01:05:28.509Z,10.20
2023-04-22T01:07:56.531Z,10.30
2023-04-22T01:10:25.002Z,10.30
2023-04-22T01:12:53.127Z,10.30
2023-04-22T01:15:21.225Z,10.20
2023-04-22T01:17:50.925Z,10.20
2023-04-22T01:20:25.451Z,10.30
2023-04-22T01:22:55.431Z,10.20
2023-04-22T01:25:25.125Z,10.10
2023-04-22T01:27:54.034Z,10.10
2023-04-22T01:30:22.262Z,10.00
2023-04-22T01:32:51.058Z,10.00
2023-04-22T01:35:19.108Z,10.00
2023-04-22T01:37:47.148Z,10.10
2023-04-22T01:40:19.766Z,10.20
2023-04-22T01:42:50.064Z,10.30
2023-04-22T01:45:18.524Z,10.20
2023-04-22T01:47:46.520Z,10.20
2023-04-22T01:50:14.583Z,10.30
2023-04-22T01:52:42.666Z,10.40
2023-04-22T01:55:11.319Z,10.40
2023-04-22T01:57:39.297Z,10.40
2023-04-22T02:00:10.496Z,10.50
2023-04-22T02:02:38.805Z,10.50
2023-04-22T02:05:08.570Z,10.60
2023-04-22T02:07:37.236Z,10.60
2023-04-22T02:10:06.245Z,10.70
2023-04-22T02:12:34.340Z,10.80
2023-04-22T02:15:02.381Z,10.80
2023-04-22T02:17:31.766Z,10.70
2023-04-22T02:20:00.036Z,10.70
2023-04-22T02:22:29.489Z,10.70
2023-04-22T02:24:57.476Z,10.80
2023-04-22T02:27:25.560Z,10.80
2023-04-22T02:29:53.748Z,10.80
2023-04-22T02:32:21.780Z,10.80
2023-04-22T02:34:51.692Z,10.70
2023-04-22T02:37:20.710Z,10.70
2023-04-22T02:39:48.847Z,10.60
2023-04-22T02:42:16.925Z,10.70
2023-04-22T02:44:44.968Z,10.70
2023-04-22T02:47:13.025Z,10.70
2023-04-22T02:49:41.463Z,10.70
2023-04-22T02:52:13.710Z,10.60
2023-04-22T02:54:41.640Z,10.50
2023-04-22T02:57:09.636Z,10.40
2023-04-22T02:59:38.106Z,10.30
2023-04-22T03:02:07.012Z,10.20
2023-04-22T03:04:35.554Z,10.20
2023-04-22T03:07:04.269Z,10.20
2023-04-22T03:09:33.792Z,10.20
2023-04-22T03:12:02.657Z,10.30
2023-04-22T03:14:30.696Z,10.20
2023-04-22T03:16:58.748Z,10.10
2023-04-22T03:19:26.983Z,10.10
2023-04-22T03:21:56.487Z,10.00
2023-04-22T03:24:24.454Z,9.80
2023-04-22T03:26:53.869Z,9.80
2023-04-22T03:29:21.820Z,9.80
2023-04-22T03:31:49.940Z,9.70
2023-04-22T03:34:18.169Z,9.80
2023-04-22T03:36:46.225Z,9.70
2023-04-22T03:39:14.253Z,9.50
2023-04-22T03:41:42.271Z,9.50
2023-04-22T03:44:11.711Z,9.60
2023-04-22T03:46:39.740Z,9.40
2023-04-22T03:49:08.331Z,9.50
2023-04-22T03:51:36.444Z,9.40
2023-04-22T03:54:04.492Z,9.50
2023-04-22T03:56:33.738Z,9.50
2023-04-22T03:59:01.738Z,9.40
2023-04-22T04:01:31.082Z,9.50
2023-04-22T04:03:59.232Z,9.60
2023-04-22T04:06:28.068Z,9.60
2023-04-22T04:08:56.113Z,9.60
2023-04-22T04:11:24.292Z,9.50
2023-04-22T04:13:52.312Z,9.60
2023-04-22T04:16:20.329Z,9.60
2023-04-22T04:18:52.465Z,9.40
2023-04-22T04:21:20.496Z,9.40
2023-04-22T04:23:48.762Z,9.50
2023-04-22T04:26:16.831Z,9.30
2023-04-22T04:28:44.939Z,9.20
2023-04-22T04:31:13.139Z,9.30
2023-04-22T04:33:41.236Z,9.20
2023-04-22T04:36:10.817Z,9.20
2023-04-22T04:38:39.060Z,9.20
2023-04-22T04:41:08.601Z,9.10
2023-04-22T04:43:36.782Z,9.20
2023-04-22T04:46:04.883Z,9.20
2023-04-22T04:48:36.402Z,9.20
2023-04-22T04:51:06.177Z,9.30
2023-04-22T04:53:35.578Z,9.40
2023-04-22T04:56:04.068Z,9.60
2023-04-22T04:58:32.218Z,9.60
2023-04-22T05:01:00.398Z,9.60
2023-04-22T05:03:28.760Z,9.50
2023-04-22T05:05:57.582Z,9.50
2023-04-22T05:08:25.525Z,9.40
2023-04-22T05:10:54.973Z,9.30
2023-04-22T05:13:23.098Z,9.30
2023-04-22T05:15:51.306Z,9.40
2023-04-22T05:18:19.377Z,9.40
2023-04-22T05:20:47.413Z,9.50
2023-04-22T05:23:15.802Z,9.60
2023-04-22T05:25:44.001Z,9.70
2023-04-22T05:28:13.380Z,9.80
2023-04-22T05:30:41.310Z,9.80
2023-04-22T05:33:09.537Z,9.80
2023-04-22T05:35:37.546Z,9.80
2023-04-22T05:38:05.458Z,9.80
2023-04-22T05:40:33.380Z,9.70
2023-04-22T05:43:01.301Z,9.90
2023-04-22T05:45:30.938Z,9.80
2023-04-22T05:47:58.836Z,9.90
2023-04-22T05:50:26.996Z,10.00
2023-04-22T05:52:55.425Z,10.20
2023-04-22T05:55:23.511Z,10.20
2023-04-22T05:57:51.745Z,10.20
2023-04-22T06:00:19.944Z,10.30
2023-04-22T06:02:49.350Z,10.40
2023-04-22T06:05:17.663Z,10.60
2023-04-22T06:07:45.869Z,10.70
2023-04-22T06:10:13.897Z,10.90
2023-04-22T06:12:41.905Z,11.00
2023-04-22T06:15:11.562Z,11.10
2023-04-22T06:17:39.589Z,11.20
2023-04-22T06:20:09.835Z,11.20
2023-04-22T06:22:38.269Z,11.30
2023-04-22T06:25:07.130Z,11.40
2023-04-22T06:27:35.069Z,11.50
2023-04-22T06:30:03.054Z,11.50
2023-04-22T06:32:31.085Z,11.50
2023-04-22T06:34:59.034Z,11.60
2023-04-22T06:37:28.280Z,11.60
2023-04-22T06:39:56.173Z,11.60
2023-04-22T06:42:24.111Z,11.70
2023-04-22T06:44:52.028Z,11.80
2023-04-22T06:47:19.973Z,11.90
2023-04-22T06:49:47.899Z,12.10
2023-04-22T06:52:15.752Z,12.10
2023-04-22T06:54:44.969Z,12.20
2023-04-22T06:57:12.808Z,12.40
2023-04-22T06:59:41.219Z,12.40
2023-04-22T07:02:10.270Z,12.40
2023-04-22T07:04:38.227Z,12.50
2023-04-22T07:07:06.265Z,12.70
2023-04-22T07:09:36.118Z,12.90
2023-04-22T07:12:07.082Z,13.00
2023-04-22T07:14:35.135Z,13.00
2023-04-22T07:17:03.154Z,13.20
2023-04-22T07:19:33.214Z,13.20
2023-04-22T07:22:03.360Z,13.50
2023-04-22T07:24:31.795Z,13.50
2023-04-22T07:26:59.976Z,13.50
2023-04-22T07:29:29.610Z,13.50
2023-04-22T07:31:57.818Z,13.60
2023-04-22T07:34:26.124Z,13.80
2023-04-22T07:36:54.353Z,13.80
2023-04-22T07:39:22.749Z,13.80
2023-04-22T07:41:51.252Z,13.90
2023-04-22T07:44:21.841Z,13.80
2023-04-22T07:46:51.525Z,13.60
2023-04-22T07:49:19.946Z,13.60
2023-04-22T07:51:48.049Z,13.80
2023-04-22T07:54:16.205Z,13.90
2023-04-22T07:56:44.237Z,14.00
2023-04-22T07:59:12.240Z,14.20
2023-04-22T08:01:40.570Z,14.10
2023-04-22T08:04:10.253Z,14.30
2023-04-22T08:06:38.731Z,14.40
2023-04-22T08:09:07.132Z,14.90
2023-04-22T08:11:35.073Z,15.10
2023-04-22T08:14:02.935Z,15.30
2023-04-22T08:16:30.859Z,15.30
2023-04-22T08:18:58.817Z,15.10
2023-04-22T08:21:28.471Z,15.40
2023-04-22T08:23:56.436Z,15.50
2023-04-22T08:26:24.398Z,15.20
2023-04-22T08:28:52.293Z,15.20
2023-04-22T08:31:20.325Z,15.50
2023-04-22T08:33:48.591Z,15.50
2023-04-22T08:36:16.666Z,15.70
2023-04-22T08:38:46.901Z,16.10
2023-04-22T08:41:16.756Z,16.20
2023-04-22T08:43:45.303Z,16.30
2023-04-22T08:46:15.398Z,16.30
2023-04-22T08:48:43.509Z,16.30
2023-04-22T08:51:12.422Z,16.70
2023-04-22T08:53:40.439Z,16.60
2023-04-22T08:56:09.808Z,16.50
2023-04-22T08:58:38.087Z,16.80
2023-04-22T09:01:06.349Z,17.00
2023-04-22T09:03:35.722Z,17.10
2023-04-22T09:06:05.426Z,16.90
2023-04-22T09:08:33.456Z,17.00
2023-04-22T09:11:01.350Z,17.40
2023-04-22T09:13:31.009Z,17.20
2023-04-22T09:16:00.085Z,17.10
2023-04-22T09:18:28.129Z,17.00
2023-04-22T09:20:57.334Z,17.00
2023-04-22T09:23:25.505Z,17.20
2023-04-22T09:25:53.472Z,17.20
2023-04-22T09:28:21.304Z,17.20
2023-04-22T09:30:50.571Z,17.40
2023-04-22T09:33:18.461Z,17.60
2023-04-22T09:35:46.315Z,17.70
2023-04-22T09:38:14.848Z,17.80
2023-04-22T09:40:44.476Z,18.10
2023-04-22T09:43:12.912Z,18.30
2023-04-22T09:45:42.212Z,18.50
2023-04-22T09:48:13.197Z,18.40
2023-04-22T09:50:44.512Z,18.40
2023-04-22T09:53:14.925Z,18.70
2023-04-22T09:55:45.055Z,18.70
2023-04-22T09:58:14.971Z,18.60
2023-04-22T10:00:45.285Z,18.70
2023-04-22T10:03:14.848Z,18.90
2023-04-22T10:05:45.117Z,18.60
2023-04-22T10:08:14.480Z,18.60
2023-04-22T10:10:43.013Z,18.40
2023-04-22T10:13:11.226Z,18.60
2023-04-22T10:15:41.748Z,18.70
2023-04-22T10:18:13.494Z,19.20
2023-04-22T10:20:43.991Z,19.00
2023-04-22T10:23:15.948Z,18.90
2023-04-22T10:25:43.938Z,19.00
2023-04-22T10:28:13.533Z,19.00
2023-04-22T10:30:42.088Z,19.10
2023-04-22T10:33:39.535Z,19.30
2023-04-22T10:36:11.381Z,19.50
2023-04-22T10:38:40.720Z,19.70
2023-04-22T10:41:09.079Z,19.70
2023-04-22T10:43:44.171Z,19.80
2023-04-22T10:46:45.572Z,20.10
2023-04-22T10:49:16.476Z,19.50
2023-04-22T10:51:47.259Z,19.80
2023-04-22T10:55:01.486Z,20.00
2023-04-22T10:57:37.773Z,20.20
2023-04-22T11:00:45.759Z,20.30
2023-04-22T11:03:27.250Z,20.50
2023-04-22T11:06:17.149Z,20.50
2023-04-22T11:08:50.818Z,20.60
2023-04-22T11:11:19.486Z,20.90
2023-04-22T11:13:50.516Z,20.70
2023-04-22T11:16:20.464Z,20.10
2023-04-22T11:18:49.979Z,20.60
2023-04-22T11:21:17.899Z,20.50
2023-04-22T11:23:53.300Z,20.50
2023-04-22T11:26:34.818Z,20.70
2023-04-22T11:29:02.923Z,21.10
2023-04-22T11:31:32.339Z,20.90
2023-04-22T11:34:00.523Z,21.10
2023-04-22T11:36:28.772Z,21.40
2023-04-22T11:38:58.187Z,21.80
2023-04-22T11:41:26.517Z,21.70
2023-04-22T11:43:55.500Z,21.70
2023-04-22T11:46:30.156Z,22.00
2023-04-22T11:49:13.150Z,21.90
2023-04-22T11:51:53.905Z,22.30
2023-04-22T11:54:36.928Z,22.30
2023-04-22T11:57:06.693Z,22.30
2023-04-22T11:59:34.588Z,22.30
2023-04-22T12:02:06.505Z,22.50
2023-04-22T12:04:38.245Z,22.30
2023-04-22T12:07:06.200Z,22.70
2023-04-22T12:09:36.066Z,22.50
2023-04-22T12:12:05.122Z,22.50
2023-04-22T12:14:33.609Z,22.70
2023-04-22T12:17:05.337Z,22.50
2023-04-22T12:19:33.234Z,22.60
2023-04-22T12:22:01.133Z,22.90
2023-04-22T12:24:29.556Z,22.90
2023-04-22T12:26:58.841Z,22.30
2023-04-22T12:29:33.278Z,22.10
2023-04-22T12:32:01.194Z,22.20
2023-04-22T12:34:37.638Z,22.20
2023-04-22T12:37:05.607Z,22.20
2023-04-22T12:39:33.527Z,22.10
2023-04-22T12:42:02.811Z,22.20
2023-04-22T12:44:30.750Z,22.00
2023-04-22T12:46:58.725Z,21.80
2023-04-22T12:49:26.685Z,21.80
2023-04-22T12:51:54.868Z,21.80
2023-04-22T12:54:23.361Z,21.60
2023-04-22T12:56:52.087Z,21.90
2023-04-22T12:59:21.397Z,22.10
2023-04-22T13:01:49.433Z,21.80
2023-04-22T13:04:20.076Z,21.90
2023-04-22T13:06:50.534Z,21.90
2023-04-22T13:09:18.523Z,21.70
2023-04-22T13:11:49.169Z,21.30
2023-04-22T13:14:17.020Z,21.20
2023-04-22T13:16:46.581Z,21.10
2023-04-22T13:19:14.820Z,20.90
2023-04-22T13:21:42.816Z,20.80
2023-04-22T13:24:10.909Z,20.70
2023-04-22T13:26:39.651Z,20.60
2023-04-22T13:29:11.141Z,20.40
2023-04-22T13:31:39.494Z,20.30
2023-04-22T13:34:08.811Z,20.10
2023-04-22T13:36:36.701Z,20.00
2023-04-22T13:39:05.119Z,19.90
2023-04-22T13:41:33.015Z,19.80
2023-04-22T13:44:00.933Z,19.70
2023-04-22T13:46:28.885Z,19.60
2023-04-22T13:48:56.865Z,19.50
2023-04-22T13:51:26.364Z,19.50
2023-04-22T13:53:54.277Z,19.40
2023-04-22T13:56:22.176Z,19.40
2023-04-22T13:58:50.107Z,19.30
2023-04-22T14:01:18.125Z,19.20
2023-04-22T14:03:47.014Z,19.10
2023-04-22T14:06:15.711Z,19.10
2023-04-22T14:08:45.304Z,19.00
2023-04-22T14:11:13.789Z,18.90
2023-04-22T14:13:42.453Z,18.70
2023-04-22T14:16:11.889Z,18.70
2023-04-22T14:18:40.929Z,18.60
2023-04-22T14:21:10.276Z,18.60
2023-04-22T14:23:38.719Z,18.60
2023-04-22T14:26:08.998Z,18.50
2023-04-22T14:28:37.651Z,18.50
2023-04-22T14:31:06.232Z,18.50
2023-04-22T14:33:34.373Z,18.50
2023-04-22T14:36:02.271Z,18.40
2023-04-22T14:38:30.629Z,18.30
2023-04-22T14:40:58.524Z,18.40
2023-04-22T14:43:27.785Z,18.40
2023-04-22T14:45:55.685Z,18.40
2023-04-22T14:48:24.938Z,18.30
2023-04-22T14:50:52.951Z,18.40
2023-04-22T14:53:21.572Z,18.40
2023-04-22T14:55:49.422Z,18.50
2023-04-22T14:58:17.351Z,18.70
2023-04-22T15:00:48.357Z,18.70
2023-04-22T15:03:16.579Z,18.60
2023-04-22T15:05:49.096Z,18.60
2023-04-22T15:08:17.022Z,18.60
2023-04-22T15:10:44.934Z,18.70
2023-04-22T15:13:12.848Z,18.80
2023-04-22T15:15:40.764Z,18.80
2023-04-22T15:18:10.507Z,18.90
2023-04-22T15:20:38.569Z,19.00
2023-04-22T15:23:06.592Z,19.00
2023-04-22T15:25:35.549Z,19.20
2023-04-22T15:28:04.139Z,19.10
2023-04-22T15:30:32.019Z,19.10
2023-04-22T15:32:59.955Z,19.10
2023-04-22T15:35:29.241Z,19.10
2023-04-22T15:37:59.098Z,19.00
2023-04-22T15:40:27.103Z,18.90
2023-04-22T15:42:54.972Z,18.70
2023-04-22T15:45:22.945Z,18.70
2023-04-22T15:47:52.299Z,18.70
2023-04-22T15:50:23.262Z,18.60
2023-04-22T15:52:52.606Z,18.70
2023-04-22T15:55:21.146Z,18.60
2023-04-22T15:57:49.070Z,18.60
2023-04-22T16:00:17.362Z,18.50
2023-04-22T16:02:46.468Z,18.40
2023-04-22T16:05:15.106Z,18.40
2023-04-22T16:07:43.164Z,18.40
2023-04-22T16:10:12.901Z,18.50
2023-04-22T16:12:41.184Z,18.40
2023-04-22T16:15:10.944Z,18.30
2023-04-22T16:17:39.196Z,18.30
2023-04-22T16:20:08.669Z,18.40
2023-04-22T16:22:36.999Z,18.30
2023-04-22T16:25:05.639Z,18.30
2023-04-22T16:27:34.981Z,18.20
2023-04-22T16:30:02.953Z,18.10
2023-04-22T16:32:31.063Z,18.10
2023-04-22T16:34:59.056Z,18.10
2023-04-22T16:37:27.295Z,18.10
2023-04-22T16:39:55.307Z,18.10
2023-04-22T16:42:23.178Z,18.00
2023-04-22T16:44:52.477Z,18.00
2023-04-22T16:47:20.491Z,18.00
2023-04-22T16:49:48.601Z,18.00
2023-04-22T16:52:16.817Z,17.90
2023-04-22T16:54:44.772Z,17.80
2023-04-22T16:57:12.854Z,17.90
2023-04-22T16:59:41.037Z,17.90
2023-04-22T17:02:10.694Z,18.00
2023-04-22T17:04:38.696Z,17.80
2023-04-22T17:07:06.676Z,17.80
2023-04-22T17:09:34.602Z,17.80
2023-04-22T17:12:02.635Z,17.70
2023-04-22T17:14:31.093Z,17.70
2023-04-22T17:16:58.994Z,17.60
2023-04-22T17:19:28.326Z,17.70
2023-04-22T17:21:56.384Z,17.70
2023-04-22T17:24:24.952Z,17.70
2023-04-22T17:26:52.849Z,17.70
2023-04-22T17:29:21.785Z,17.60
2023-04-22T17:31:49.939Z,17.40
2023-04-22T17:34:17.953Z,17.40
2023-04-22T17:36:47.218Z,17.40
2023-04-22T17:39:15.430Z,17.40
2023-04-22T17:41:43.342Z,17.40
2023-04-22T17:44:11.472Z,17.30
2023-04-22T17:46:41.157Z,17.30
2023-04-22T17:49:09.193Z,17.20
2023-04-22T17:51:37.123Z,17.20
2023-04-22T17:54:07.003Z,17.20
2023-04-22T17:56:35.418Z,17.10
2023-04-22T17:59:03.374Z,17.00
2023-04-22T18:01:31.432Z,17.00
2023-04-22T18:04:00.345Z,16.90
2023-04-22T18:06:29.161Z,16.90
2023-04-22T18:08:57.126Z,16.90
2023-04-22T18:11:27.913Z,16.90
2023-04-22T18:13:56.090Z,16.90
2023-04-22T18:16:24.114Z,16.90
2023-04-22T18:18:52.247Z,16.80
2023-04-22T18:21:30.206Z,16.80
2023-04-22T18:23:58.576Z,16.70
2023-04-22T18:26:27.927Z,16.60
2023-04-22T18:28:56.255Z,16.40
2023-04-22T18:31:24.670Z,16.20
2023-04-22T18:33:52.641Z,16.00
2023-04-22T18:36:21.443Z,15.70
2023-04-22T18:38:49.313Z,15.50
2023-04-22T18:41:17.280Z,15.40
2023-04-22T18:43:48.423Z,15.20
2023-04-22T18:46:16.471Z,15.10
2023-04-22T18:48:58.023Z,15.00
2023-04-22T18:51:34.887Z,14.90
2023-04-22T18:54:03.053Z,14.80
2023-04-22T18:56:32.831Z,14.80
2023-04-22T18:59:02.318Z,14.80
2023-04-22T19:01:30.838Z,14.80
2023-04-22T19:04:01.652Z,14.70
2023-04-22T19:06:30.120Z,14.70
2023-04-22T19:08:58.246Z,14.60
2023-04-22T19:11:26.786Z,14.60
2023-04-22T19:13:54.914Z,14.60
2023-04-22T19:16:26.321Z,14.60
2023-04-22T19:18:54.848Z,14.60
2023-04-22T19:21:23.153Z,14.60
2023-04-22T19:23:52.875Z,14.30
2023-04-22T19:26:22.131Z,14.40
2023-04-22T19:28:50.416Z,14.30
2023-04-22T19:31:18.785Z,14.40
2023-04-22T19:33:48.625Z,14.30
2023-04-22T19:36:16.817Z,14.40
2023-04-22T19:38:44.846Z,14.30
2023-04-22T19:41:13.602Z,14.20
2023-04-22T19:43:48.344Z,14.20
2023-04-22T19:46:16.768Z,14.20
2023-04-22T19:48:45.423Z,14.20
2023-04-22T19:51:15.221Z,14.20
2023-04-22T19:53:44.685Z,14.00
2023-04-22T19:56:26.834Z,14.00
2023-04-22T19:59:03.219Z,14.00
2023-04-22T20:01:36.471Z,14.00
2023-04-22T20:04:08.987Z,13.90
2023-04-22T20:06:41.613Z,14.00
2023-04-22T20:09:10.568Z,13.90
2023-04-22T20:11:39.017Z,13.80
2023-04-22T20:14:09.796Z,13.80
2023-04-22T20:16:38.712Z,13.80
2023-04-22T20:19:07.069Z,13.80
2023-04-22T20:21:37.035Z,13.70
2023-04-22T20:24:06.904Z,13.70
2023-04-22T20:26:35.175Z,13.70
2023-04-22T20:29:07.965Z,13.70
2023-04-22T20:31:36.384Z,13.60
2023-04-22T20:34:05.058Z,13.50
2023-04-22T20:36:33.854Z,13.50
2023-04-22T20:39:05.388Z,13.40
2023-04-22T20:41:39.251Z,13.50
2023-04-22T20:44:07.872Z,13.50
2023-04-22T20:46:35.908Z,13.40
2023-04-22T20:49:04.705Z,13.40
2023-04-22T20:51:32.842Z,13.30
2023-04-22T20:54:00.972Z,13.40
2023-04-22T20:56:28.867Z,13.40
2023-04-22T20:58:58.167Z,13.30
2023-04-22T21:01:27.514Z,13.30
2023-04-22T21:03:57.719Z,13.30
2023-04-22T21:06:29.152Z,13.20
2023-04-22T21:08:58.333Z,13.30
2023-04-22T21:11:26.960Z,13.20
2023-04-22T21:13:55.536Z,13.10
2023-04-22T21:16:29.743Z,13.00
2023-04-22T21:19:01.545Z,13.10
2023-04-22T21:21:34.242Z,13.00
2023-04-22T21:24:03.430Z,13.00
2023-04-22T21:26:32.094Z,13.00
2023-04-22T21:29:00.882Z,13.10
2023-04-22T21:31:30.979Z,12.90
2023-04-22T21:34:00.503Z,12.90
2023-04-22T21:36:28.722Z,12.90
2023-04-22T21:38:56.859Z,12.80
2023-04-22T21:41:25.254Z,12.90
2023-04-22T21:43:53.219Z,12.90
2023-04-22T21:46:22.519Z,12.70
2023-04-22T21:48:51.880Z,12.80
2023-04-22T21:51:20.016Z,12.80
2023-04-22T21:53:48.084Z,12.70
2023-04-22T21:56:16.183Z,12.60
2023-04-22T21:58:44.270Z,12.70
2023-04-22T22:01:12.327Z,12.60
2023-04-22T22:03:40.540Z,12.60
2023-04-22T22:06:10.255Z,12.60
2023-04-22T22:08:38.734Z,12.60
2023-04-22T22:11:10.674Z,12.60
2023-04-22T22:13:43.041Z,12.60
2023-04-22T22:16:11.428Z,12.70
2023-04-22T22:18:39.329Z,12.70
2023-04-22T22:21:09.111Z,12.60
2023-04-22T22:23:37.146Z,12.50
2023-04-22T22:26:05.513Z,12.40
2023-04-22T22:28:33.577Z,12.50
2023-04-22T22:31:02.473Z,12.50
2023-04-22T22:33:30.750Z,12.40
2023-04-22T22:35:58.874Z,12.40
2023-04-22T22:38:28.230Z,12.40
2023-04-22T22:40:56.208Z,12.50
2023-04-22T22:43:24.484Z,12.40
2023-04-22T22:45:52.554Z,12.40
2023-04-22T22:48:20.964Z,12.40
2023-04-22T22:50:49.180Z,12.40
2023-04-22T22:53:18.304Z,12.40
2023-04-22T22:55:47.738Z,12.40
2023-04-22T22:58:15.656Z,12.50
2023-04-22T23:00:43.662Z,12.40
2023-04-22T23:03:11.770Z,12.40
2023-04-22T23:05:40.017Z,12.30
2023-04-22T23:08:08.045Z,12.30
2023-04-22T23:10:36.030Z,12.30
2023-04-22T23:13:05.367Z,12.30
2023-04-22T23:15:33.306Z,12.40
2023-04-22T23:18:01.429Z,12.40
2023-04-22T23:20:29.569Z,12.20
2023-04-22T23:22:58.546Z,12.20
2023-04-22T23:25:27.452Z,12.20
2023-04-22T23:27:56.067Z,12.30
2023-04-22T23:30:26.223Z,12.30
2023-04-22T23:32:57.791Z,12.20
2023-04-22T23:35:27.470Z,12.30
2023-04-22T23:37:55.900Z,12.20
2023-04-22T23:40:24.023Z,12.20
2023-04-22T23:42:52.005Z,12.10
2023-04-22T23:45:19.987Z,12.10
2023-04-22T23:47:49.416Z,12.10
2023-04-22T23:50:19.195Z,12.10
2023-04-22T23:52:47.339Z,12.10
2023-04-22T23:55:16.898Z,12.10
2023-04-22T23:57:45.456Z,12.10
